createdAt,value
2018-03-18T00:02:21.073Z,37.58
2018-03-18T00:07:23.547Z,37.80
2018-03-18T00:12:26.025Z,37.94
2018-03-18T00:17:28.499Z,38.10
2018-03-18T00:22:30.977Z,38.01
2018-03-18T00:27:33.461Z,38.35
2018-03-18T00:32:36.095Z,38.68
2018-03-18T00:37:39.525Z,39.13
2018-03-18T00:42:42.064Z,38.67
2018-03-18T00:47:44.593Z,38.83
2018-03-18T00:52:47.079Z,38.62
2018-03-18T00:57:49.609Z,38.83
2018-03-18T01:02:52.083Z,39.02
2018-03-18T01:07:54.585Z,38.88
2018-03-18T01:12:57.160Z,39.09
2018-03-18T01:17:59.637Z,39.43
2018-03-18T01:23:02.164Z,39.40
2018-03-18T01:28:04.662Z,39.71
2018-03-18T01:33:07.244Z,39.58
2018-03-18T01:38:09.739Z,39.93
2018-03-18T01:43:12.253Z,40.00
2018-03-18T01:48:14.723Z,40.15
2018-03-18T01:53:21.997Z,39.33
2018-03-18T01:58:24.500Z,39.72
2018-03-18T02:03:26.997Z,40.07
2018-03-18T02:08:29.547Z,40.28
2018-03-18T02:13:32.068Z,39.96
2018-03-18T02:18:34.890Z,39.75
2018-03-18T02:23:37.392Z,39.75
2018-03-18T02:28:39.929Z,39.88
2018-03-18T02:33:42.443Z,39.21
2018-03-18T02:38:44.951Z,39.56
2018-03-18T02:43:47.417Z,39.68
2018-03-18T02:48:49.882Z,39.71
2018-03-18T02:53:52.344Z,40.11
2018-03-18T02:58:54.820Z,39.52
2018-03-18T03:03:58.110Z,39.72
2018-03-18T03:09:00.584Z,39.80
2018-03-18T03:14:03.388Z,39.93
2018-03-18T03:19:06.091Z,40.04
2018-03-18T03:24:08.593Z,39.76
2018-03-18T03:29:11.152Z,40.13
2018-03-18T03:34:13.692Z,40.10
2018-03-18T03:39:16.164Z,39.89
2018-03-18T03:44:18.643Z,39.78
2018-03-18T03:49:21.184Z,39.42
2018-03-18T03:54:23.690Z,39.78
2018-03-18T03:59:26.188Z,39.91
2018-03-18T04:04:28.838Z,40.19
2018-03-18T04:09:31.353Z,40.21
2018-03-18T04:14:33.825Z,40.70
2018-03-18T04:19:36.834Z,40.05
2018-03-18T04:24:39.727Z,39.98
2018-03-18T04:29:42.480Z,40.00
2018-03-18T04:34:45.223Z,40.47
2018-03-18T04:39:47.891Z,39.70
2018-03-18T04:44:50.459Z,40.15
2018-03-18T04:49:52.979Z,39.92
2018-03-18T04:54:55.481Z,40.33
2018-03-18T04:59:57.993Z,40.77
2018-03-18T05:05:00.470Z,40.46
2018-03-18T05:10:02.956Z,40.78
2018-03-18T05:15:05.857Z,40.43
2018-03-18T05:20:09.549Z,40.58
2018-03-18T05:25:12.340Z,40.55
2018-03-18T05:30:15.031Z,40.45
2018-03-18T05:35:17.674Z,40.36
2018-03-18T05:40:20.218Z,40.76
2018-03-18T05:45:22.711Z,40.73
2018-03-18T05:50:25.409Z,40.63
2018-03-18T05:55:27.910Z,40.68
2018-03-18T06:00:30.421Z,39.83
2018-03-18T06:05:32.887Z,39.94
2018-03-18T06:10:35.408Z,40.18
2018-03-18T06:15:39.404Z,39.93
2018-03-18T06:20:41.958Z,39.86
2018-03-18T06:25:44.412Z,39.95
2018-03-18T06:30:46.934Z,39.77
2018-03-18T06:35:49.407Z,40.11
2018-03-18T06:40:51.937Z,40.13
2018-03-18T06:45:54.427Z,39.50
2018-03-18T06:50:56.878Z,39.64
2018-03-18T06:55:59.398Z,39.17
2018-03-18T07:01:01.937Z,39.09
2018-03-18T07:06:04.451Z,38.62
2018-03-18T07:11:07.106Z,38.32
2018-03-18T07:16:09.763Z,38.47
2018-03-18T07:21:12.280Z,37.93
2018-03-18T07:26:14.860Z,38.11
2018-03-18T07:31:17.398Z,37.77
2018-03-18T07:36:19.881Z,37.26
2018-03-18T07:41:22.354Z,37.22
2018-03-18T07:46:24.825Z,37.00
2018-03-18T07:51:27.305Z,36.45
2018-03-18T07:56:29.760Z,36.69
2018-03-18T08:01:32.236Z,36.13
2018-03-18T08:06:34.741Z,36.72
2018-03-18T08:11:37.350Z,35.59
2018-03-18T08:16:39.935Z,35.78
2018-03-18T08:21:42.440Z,35.31
2018-03-18T08:26:44.926Z,35.45
2018-03-18T08:31:47.413Z,34.76
2018-03-18T08:36:50.018Z,34.51
2018-03-18T08:41:52.497Z,34.47
2018-03-18T08:46:55.076Z,34.52
2018-03-18T08:51:58.280Z,33.66
2018-03-18T08:57:00.769Z,32.77
2018-03-18T09:02:03.217Z,32.49
2018-03-18T09:07:05.811Z,31.37
2018-03-18T09:12:08.307Z,31.50
2018-03-18T09:17:10.810Z,30.77
2018-03-18T09:22:13.405Z,29.99
2018-03-18T09:27:15.920Z,31.10
2018-03-18T09:32:18.413Z,30.23
2018-03-18T09:37:20.874Z,29.54
2018-03-18T09:42:23.350Z,29.36
2018-03-18T09:47:25.831Z,29.85
2018-03-18T09:52:28.322Z,28.52
2018-03-18T09:57:30.841Z,26.70
2018-03-18T10:02:33.361Z,24.85
2018-03-18T10:07:35.950Z,25.30
2018-03-18T10:12:38.955Z,25.30
2018-03-18T10:17:41.490Z,24.74
2018-03-18T10:22:44.034Z,24.99
2018-03-18T10:27:46.583Z,25.95
2018-03-18T10:32:49.191Z,24.47
2018-03-18T10:37:51.696Z,25.00
2018-03-18T10:42:54.259Z,24.48
2018-03-18T10:47:56.735Z,22.95
2018-03-18T10:52:59.194Z,23.45
2018-03-18T10:58:01.664Z,24.49
2018-03-18T11:03:04.759Z,23.56
2018-03-18T11:08:07.300Z,23.46
2018-03-18T11:13:09.867Z,23.54
2018-03-18T11:18:12.344Z,24.08
2018-03-18T11:23:14.913Z,23.23
2018-03-18T11:28:17.504Z,23.12
2018-03-18T11:33:20.347Z,23.80
2018-03-18T11:38:24.926Z,24.27
2018-03-18T11:43:27.439Z,23.98
2018-03-18T11:48:30.331Z,25.72
2018-03-18T11:53:32.834Z,24.37
2018-03-18T11:58:36.148Z,22.97
2018-03-18T12:03:38.750Z,23.17
2018-03-18T12:09:00.647Z,24.83
2018-03-18T12:14:03.212Z,23.76
2018-03-18T12:19:05.827Z,23.23
2018-03-18T12:24:09.690Z,22.74
2018-03-18T12:29:12.371Z,22.61
2018-03-18T12:34:15.482Z,23.12
2018-03-18T12:39:19.177Z,22.85
2018-03-18T12:44:21.700Z,23.11
2018-03-18T12:49:24.302Z,23.23
2018-03-18T12:54:26.804Z,22.98
2018-03-18T12:59:29.545Z,22.93
2018-03-18T13:04:32.444Z,22.80
2018-03-18T13:09:35.707Z,22.74
2018-03-18T13:14:38.275Z,23.53
2018-03-18T13:19:41.770Z,23.34
2018-03-18T13:24:44.743Z,23.56
2018-03-18T13:29:47.224Z,22.75
2018-03-18T13:34:49.708Z,23.25
2018-03-18T13:39:52.241Z,23.10
2018-03-18T13:45:00.998Z,22.84
2018-03-18T13:50:08.976Z,22.64
2018-03-18T13:55:11.534Z,22.62
2018-03-18T14:00:14.098Z,22.41
2018-03-18T14:05:18.969Z,22.52
2018-03-18T14:10:21.537Z,23.64
2018-03-18T14:15:24.059Z,22.96
2018-03-18T14:20:26.528Z,22.88
2018-03-18T14:25:29.073Z,22.27
2018-03-18T14:30:31.576Z,22.05
2018-03-18T14:35:34.094Z,22.59
2018-03-18T14:40:36.618Z,22.60
2018-03-18T14:45:39.108Z,22.65
2018-03-18T14:50:41.638Z,22.94
2018-03-18T14:55:44.149Z,23.02
2018-03-18T15:00:46.781Z,22.28
2018-03-18T15:05:49.287Z,23.54
2018-03-18T15:10:51.754Z,22.85
2018-03-18T15:15:54.242Z,22.92
2018-03-18T15:20:56.698Z,22.86
2018-03-18T15:25:59.185Z,23.64
2018-03-18T15:31:01.716Z,23.51
2018-03-18T15:36:04.880Z,23.41
2018-03-18T15:41:07.483Z,23.48
2018-03-18T15:46:10.103Z,23.81
2018-03-18T15:51:12.705Z,24.55
2018-03-18T15:56:15.258Z,24.87
2018-03-18T16:01:17.776Z,24.11
2018-03-18T16:06:20.271Z,24.17
2018-03-18T16:11:22.790Z,24.60
2018-03-18T16:16:25.275Z,24.83
2018-03-18T16:21:27.793Z,24.48
2018-03-18T16:26:30.323Z,24.66
2018-03-18T16:31:32.791Z,24.36
2018-03-18T16:36:35.285Z,24.61
2018-03-18T16:41:37.848Z,25.42
2018-03-18T16:46:40.387Z,25.58
2018-03-18T16:51:42.914Z,25.91
2018-03-18T16:56:45.421Z,26.08
2018-03-18T17:01:47.889Z,26.04
2018-03-18T17:06:50.371Z,25.84
2018-03-18T17:11:52.888Z,26.16
2018-03-18T17:16:56.621Z,27.00
2018-03-18T17:21:59.099Z,26.91
2018-03-18T17:27:01.605Z,27.03
2018-03-18T17:32:04.121Z,26.84
2018-03-18T17:37:06.623Z,26.88
2018-03-18T17:42:09.163Z,27.26
2018-03-18T17:52:58.440Z,28.00
2018-03-18T17:58:00.907Z,28.33
2018-03-18T18:03:03.414Z,27.45
2018-03-18T18:08:06.034Z,27.64
2018-03-18T18:13:09.893Z,27.38
2018-03-18T18:18:13.028Z,28.18
2018-03-18T18:23:16.039Z,27.55
2018-03-18T18:28:18.522Z,27.96
2018-03-18T18:33:20.989Z,27.73
2018-03-18T18:38:23.468Z,27.98
2018-03-18T18:43:25.954Z,27.97
2018-03-18T18:48:28.418Z,28.15
2018-03-18T18:53:30.908Z,28.38
2018-03-18T18:58:33.660Z,28.45
2018-03-18T19:03:36.233Z,28.80
2018-03-18T19:08:39.115Z,28.96
2018-03-18T19:14:02.688Z,29.46
2018-03-18T19:19:07.611Z,29.51
2018-03-18T19:24:10.585Z,29.81
2018-03-18T19:29:13.306Z,29.35
2018-03-18T19:34:16.290Z,29.95
2018-03-18T19:39:18.845Z,29.84
2018-03-18T19:44:21.630Z,30.13
2018-03-18T19:49:24.199Z,30.06
2018-03-18T19:54:26.713Z,29.89
2018-03-18T19:59:29.246Z,30.96
2018-03-18T20:04:31.740Z,30.20
2018-03-18T20:09:34.751Z,30.58
2018-03-18T20:14:37.255Z,30.62
2018-03-18T20:19:39.808Z,30.59
2018-03-18T20:24:42.796Z,30.71
2018-03-18T20:29:45.642Z,30.67
2018-03-18T20:34:48.188Z,30.76
2018-03-18T20:39:51.135Z,30.69
2018-03-18T20:44:53.629Z,30.79
2018-03-18T20:49:56.111Z,30.86
2018-03-18T20:54:58.594Z,30.95
2018-03-18T21:00:01.068Z,30.49
2018-03-18T21:05:03.599Z,30.55
2018-03-18T21:10:06.204Z,30.98
2018-03-18T21:15:08.764Z,31.03
2018-03-18T21:20:11.276Z,31.15
2018-03-18T21:25:13.821Z,31.36
2018-03-18T21:30:16.322Z,31.63
2018-03-18T21:35:18.829Z,31.32
2018-03-18T21:40:21.304Z,31.38
2018-03-18T21:45:23.757Z,31.30
2018-03-18T21:50:26.242Z,31.83
2018-03-18T21:55:28.716Z,31.47
2018-03-18T22:00:31.233Z,31.74
2018-03-18T22:05:34.309Z,31.45
2018-03-18T22:10:36.804Z,31.52
2018-03-18T22:15:39.322Z,31.78
2018-03-18T22:20:41.845Z,31.72
2018-03-18T22:25:44.352Z,32.72
2018-03-18T22:30:46.830Z,32.29
2018-03-18T22:35:49.307Z,32.22
2018-03-18T22:40:51.769Z,32.40
2018-03-18T22:45:54.260Z,32.60
2018-03-18T22:50:56.732Z,32.62
2018-03-18T22:55:59.256Z,32.93
2018-03-18T23:01:01.762Z,33.10
2018-03-18T23:06:04.270Z,33.78
2018-03-18T23:11:07.672Z,33.30
2018-03-18T23:16:10.257Z,33.37
2018-03-18T23:21:12.814Z,33.37
2018-03-18T23:26:15.374Z,33.31
2018-03-18T23:31:17.858Z,33.57
2018-03-18T23:36:20.350Z,33.47
2018-03-18T23:41:22.818Z,33.47
2018-03-18T23:46:25.306Z,34.06
2018-03-18T23:51:27.810Z,34.30
2018-03-18T23:56:30.276Z,34.75
